createdAt,value
2023-02-17T00:01:40.550Z,10.88
2023-02-17T00:04:08.803Z,10.86
2023-02-17T00:06:37.146Z,10.86
2023-02-17T00:09:05.588Z,10.87
2023-02-17T00:11:34.071Z,10.86
2023-02-17T00:14:02.761Z,10.86
2023-02-17T00:16:31.198Z,10.86
2023-02-17T00:19:02.630Z,10.86
2023-02-17T00:21:33.520Z,10.87
2023-02-17T00:24:02.172Z,10.88
2023-02-17T00:26:30.652Z,10.90
2023-02-17T00:29:00.298Z,10.89
2023-02-17T00:31:28.822Z,10.89
2023-02-17T00:33:57.669Z,10.88
2023-02-17T00:36:28.676Z,10.87
2023-02-17T00:38:58.606Z,10.88
2023-02-17T00:41:28.333Z,10.87
2023-02-17T00:43:57.095Z,10.88
2023-02-17T00:46:26.065Z,10.87
2023-02-17T00:48:54.861Z,10.87
2023-02-17T00:51:23.753Z,10.88
2023-02-17T00:53:53.700Z,10.89
2023-02-17T00:56:22.005Z,10.88
2023-02-17T00:58:50.313Z,10.88
2023-02-17T01:01:18.582Z,10.91
2023-02-17T01:03:47.067Z,10.89
2023-02-17T01:06:24.325Z,10.90
2023-02-17T01:08:54.468Z,10.92
2023-02-17T01:11:25.742Z,10.91
2023-02-17T01:13:54.803Z,10.91
2023-02-17T01:16:27.749Z,10.92
2023-02-17T01:18:57.175Z,10.91
2023-02-17T01:21:28.210Z,10.92
2023-02-17T01:24:00.705Z,10.92
2023-02-17T01:26:31.279Z,10.93
2023-02-17T01:29:00.288Z,10.92
2023-02-17T01:31:29.844Z,10.92
2023-02-17T01:34:01.305Z,10.93
2023-02-17T01:36:30.045Z,10.94
2023-02-17T01:39:00.346Z,10.96
2023-02-17T01:41:30.523Z,10.95
2023-02-17T01:44:15.955Z,10.95
2023-02-17T01:46:46.471Z,10.95
2023-02-17T01:49:25.536Z,10.96
2023-02-17T01:51:58.915Z,10.96
2023-02-17T01:54:31.561Z,10.98
2023-02-17T01:57:01.908Z,10.98
2023-02-17T01:59:31.508Z,10.99
2023-02-17T02:02:05.370Z,11.00
2023-02-17T02:04:38.015Z,11.01
2023-02-17T02:07:11.778Z,10.99
2023-02-17T02:09:47.457Z,10.97
2023-02-17T02:12:22.765Z,10.96
2023-02-17T02:14:52.435Z,10.97
2023-02-17T02:17:33.029Z,10.96
2023-02-17T02:20:41.432Z,10.95
2023-02-17T02:23:55.744Z,10.94
2023-02-17T02:27:16.883Z,10.93
2023-02-17T02:30:29.777Z,10.93
2023-02-17T02:33:09.628Z,10.93
2023-02-17T02:35:51.698Z,10.92
2023-02-17T02:38:26.796Z,10.93
2023-02-17T02:41:03.539Z,10.94
2023-02-17T02:43:32.843Z,10.95
2023-02-17T02:46:01.368Z,10.95
2023-02-17T02:48:31.716Z,10.97
2023-02-17T02:51:30.439Z,10.94
2023-02-17T02:54:24.170Z,10.94
2023-02-17T02:57:11.298Z,10.94
2023-02-17T02:59:54.152Z,10.94
2023-02-17T03:02:31.181Z,10.94
2023-02-17T03:05:07.317Z,10.93
2023-02-17T03:07:39.080Z,10.94
2023-02-17T03:10:08.725Z,10.94
2023-02-17T03:12:39.435Z,10.95
2023-02-17T03:15:16.361Z,10.95
2023-02-17T03:17:44.796Z,10.94
2023-02-17T03:20:16.023Z,10.94
2023-02-17T03:22:48.928Z,10.95
2023-02-17T03:25:18.273Z,10.95
2023-02-17T03:27:46.597Z,10.95
2023-02-17T03:30:15.298Z,10.95
2023-02-17T03:32:44.141Z,10.94
2023-02-17T03:35:14.212Z,10.95
2023-02-17T03:37:42.640Z,10.94
2023-02-17T03:40:11.929Z,10.94
2023-02-17T03:42:40.217Z,10.94
2023-02-17T03:45:09.412Z,10.94
2023-02-17T03:47:37.783Z,10.93
2023-02-17T03:50:07.948Z,10.93
2023-02-17T03:52:38.336Z,10.93
2023-02-17T03:55:07.755Z,10.92
2023-02-17T03:57:36.090Z,10.90
2023-02-17T04:00:05.425Z,10.89
2023-02-17T04:02:33.842Z,10.89
2023-02-17T04:05:02.080Z,10.86
2023-02-17T04:07:31.614Z,10.85
2023-02-17T04:10:02.666Z,10.83
2023-02-17T04:12:32.194Z,10.85
2023-02-17T04:15:00.494Z,10.87
2023-02-17T04:17:28.885Z,10.88
2023-02-17T04:19:57.186Z,10.92
2023-02-17T04:22:25.480Z,10.95
2023-02-17T04:24:53.869Z,10.98
2023-02-17T04:27:23.575Z,10.98
2023-02-17T04:29:53.063Z,11.04
2023-02-17T04:32:21.338Z,11.06
2023-02-17T04:34:49.620Z,11.07
2023-02-17T04:37:17.979Z,11.09
2023-02-17T04:39:46.342Z,11.11
2023-02-17T04:42:14.640Z,11.12
2023-02-17T04:44:44.308Z,11.13
2023-02-17T04:47:13.098Z,11.17
2023-02-17T04:49:41.375Z,11.14
2023-02-17T04:52:09.803Z,11.17
2023-02-17T04:54:38.284Z,11.17
2023-02-17T04:57:06.668Z,11.16
2023-02-17T04:59:34.977Z,11.16
2023-02-17T05:02:05.150Z,11.15
2023-02-17T05:04:34.375Z,11.14
2023-02-17T05:07:02.748Z,11.12
2023-02-17T05:09:31.177Z,11.11
2023-02-17T05:11:59.471Z,11.09
2023-02-17T05:14:28.127Z,11.05
2023-02-17T05:16:56.509Z,11.01
2023-02-17T05:19:26.260Z,10.97
2023-02-17T05:21:54.526Z,10.90
2023-02-17T05:24:22.942Z,10.88
2023-02-17T05:26:51.183Z,10.84
2023-02-17T05:29:19.479Z,10.81
2023-02-17T05:31:47.838Z,10.76
2023-02-17T05:34:16.252Z,10.69
2023-02-17T05:36:45.864Z,10.60
2023-02-17T05:39:14.176Z,10.55
2023-02-17T05:41:42.537Z,10.50
2023-02-17T05:44:10.832Z,10.44
2023-02-17T05:46:39.151Z,10.42
2023-02-17T05:49:07.649Z,10.42
2023-02-17T05:51:36.030Z,10.41
2023-02-17T05:54:06.139Z,10.39
2023-02-17T05:56:34.692Z,10.37
2023-02-17T05:59:03.016Z,10.35
2023-02-17T06:01:31.555Z,10.35
2023-02-17T06:03:59.837Z,10.33
2023-02-17T06:06:28.245Z,10.32
2023-02-17T06:08:56.498Z,10.31
2023-02-17T06:11:26.137Z,10.30
2023-02-17T06:13:54.440Z,10.28
2023-02-17T06:16:22.956Z,10.30
2023-02-17T06:18:51.278Z,10.30
2023-02-17T06:21:19.609Z,10.30
2023-02-17T06:23:48.251Z,10.30
2023-02-17T06:26:18.582Z,10.32
2023-02-17T06:28:48.693Z,10.34
2023-02-17T06:31:17.212Z,10.35
2023-02-17T06:33:45.573Z,10.35
2023-02-17T06:36:13.874Z,10.33
2023-02-17T06:38:42.137Z,10.36
2023-02-17T06:41:10.465Z,10.38
2023-02-17T06:43:38.734Z,10.40
2023-02-17T06:46:08.999Z,10.40
2023-02-17T06:48:37.583Z,10.40
2023-02-17T06:51:06.645Z,10.43
2023-02-17T06:53:34.970Z,10.44
2023-02-17T06:56:03.475Z,10.46
2023-02-17T06:58:32.763Z,10.47
2023-02-17T07:01:01.113Z,10.50
2023-02-17T07:03:32.456Z,10.51
2023-02-17T07:06:01.286Z,10.52
2023-02-17T07:08:29.692Z,10.50
2023-02-17T07:10:57.969Z,10.55
2023-02-17T07:13:26.372Z,10.56
2023-02-17T07:15:54.727Z,10.59
2023-02-17T07:18:23.029Z,10.59
2023-02-17T07:20:52.823Z,10.63
2023-02-17T07:23:21.191Z,10.67
2023-02-17T07:25:49.489Z,10.68
2023-02-17T07:28:18.073Z,10.70
2023-02-17T07:30:46.595Z,10.73
2023-02-17T07:33:15.170Z,10.74
2023-02-17T07:35:44.949Z,10.78
2023-02-17T07:38:15.147Z,10.79
2023-02-17T07:40:43.411Z,10.84
2023-02-17T07:43:11.692Z,10.87
2023-02-17T07:45:40.103Z,10.89
2023-02-17T07:48:08.400Z,10.89
2023-02-17T07:50:36.711Z,10.90
2023-02-17T07:53:05.025Z,10.94
2023-02-17T07:55:34.649Z,10.96
2023-02-17T07:58:02.947Z,10.99
2023-02-17T08:00:31.238Z,11.00
2023-02-17T08:02:59.485Z,11.01
2023-02-17T08:05:27.935Z,11.05
2023-02-17T08:08:10.088Z,11.09
2023-02-17T08:10:58.503Z,11.12
2023-02-17T08:13:28.507Z,11.15
2023-02-17T08:15:57.260Z,11.18
2023-02-17T08:18:25.896Z,11.22
2023-02-17T08:20:54.341Z,11.23
2023-02-17T08:23:22.949Z,11.24
2023-02-17T08:25:52.803Z,11.25
2023-02-17T08:28:21.687Z,11.25
2023-02-17T08:30:50.231Z,11.29
2023-02-17T08:33:19.569Z,11.30
2023-02-17T08:35:48.017Z,11.32
2023-02-17T08:38:16.796Z,11.35
2023-02-17T08:40:45.041Z,11.37
2023-02-17T08:43:14.776Z,11.39
2023-02-17T08:45:43.112Z,11.41
2023-02-17T08:48:11.353Z,11.43
2023-02-17T08:50:39.575Z,11.45
2023-02-17T08:53:08.040Z,11.50
2023-02-17T08:55:48.606Z,11.53
2023-02-17T08:58:19.326Z,11.58
2023-02-17T09:00:47.649Z,11.61
2023-02-17T09:03:16.067Z,11.67
2023-02-17T09:05:44.462Z,11.77
2023-02-17T09:08:12.708Z,11.88
2023-02-17T09:10:41.258Z,11.95
2023-02-17T09:13:09.607Z,12.06
2023-02-17T09:15:40.165Z,12.16
2023-02-17T09:18:08.473Z,12.23
2023-02-17T09:20:37.785Z,12.31
2023-02-17T09:23:06.494Z,12.36
2023-02-17T09:25:35.035Z,12.41
2023-02-17T09:28:03.365Z,12.45
2023-02-17T09:30:32.153Z,12.48
2023-02-17T09:33:02.223Z,12.50
2023-02-17T09:35:31.528Z,12.51
2023-02-17T09:38:00.248Z,12.51
2023-02-17T09:40:40.385Z,12.56
2023-02-17T09:43:16.764Z,12.59
2023-02-17T09:45:51.248Z,12.61
2023-02-17T09:48:24.907Z,12.60
2023-02-17T09:50:58.053Z,12.61
2023-02-17T09:53:33.309Z,12.59
2023-02-17T09:56:07.367Z,12.60
2023-02-17T09:58:40.404Z,12.60
2023-02-17T10:01:12.546Z,12.60
2023-02-17T10:03:46.377Z,12.59
2023-02-17T10:06:17.813Z,12.58
2023-02-17T10:08:52.677Z,12.56
2023-02-17T10:11:31.724Z,12.56
2023-02-17T10:14:09.820Z,12.56
2023-02-17T10:16:44.368Z,12.56
2023-02-17T10:19:20.523Z,12.55
2023-02-17T10:22:00.054Z,12.53
2023-02-17T10:24:29.837Z,12.52
2023-02-17T10:27:23.465Z,12.51
2023-02-17T10:30:10.175Z,12.49
2023-02-17T10:32:59.748Z,12.48
2023-02-17T10:35:50.352Z,12.49
2023-02-17T10:38:26.109Z,12.52
2023-02-17T10:40:56.842Z,12.52
2023-02-17T10:43:30.038Z,12.52
2023-02-17T10:46:01.466Z,12.54
2023-02-17T10:48:38.426Z,12.54
2023-02-17T10:51:08.827Z,12.55
2023-02-17T10:53:42.063Z,12.56
2023-02-17T10:56:15.803Z,12.58
2023-02-17T10:58:53.121Z,12.56
2023-02-17T11:01:23.301Z,12.57
2023-02-17T11:04:02.644Z,12.61
2023-02-17T11:06:33.529Z,12.62
2023-02-17T11:09:05.406Z,12.62
2023-02-17T11:11:37.249Z,12.65
2023-02-17T11:14:20.741Z,12.64
2023-02-17T11:16:59.360Z,12.63
2023-02-17T11:19:30.779Z,12.65
2023-02-17T11:22:02.476Z,12.65
2023-02-17T11:24:35.185Z,12.65
2023-02-17T11:27:09.010Z,12.63
2023-02-17T11:29:37.680Z,12.64
2023-02-17T11:32:09.164Z,12.63
2023-02-17T11:34:39.767Z,12.64
2023-02-17T11:37:23.794Z,12.65
2023-02-17T11:39:54.499Z,12.66
2023-02-17T11:42:25.074Z,12.67
2023-02-17T11:44:55.477Z,12.70
2023-02-17T11:47:35.123Z,12.71
2023-02-17T11:50:40.902Z,12.78
2023-02-17T11:53:35.294Z,12.81
2023-02-17T11:56:15.045Z,12.89
2023-02-17T11:59:05.684Z,12.92
2023-02-17T12:01:55.769Z,12.99
2023-02-17T12:04:28.086Z,13.07
2023-02-17T12:07:16.179Z,13.09
2023-02-17T12:09:56.617Z,13.14
2023-02-17T12:12:36.501Z,13.17
2023-02-17T12:15:26.363Z,13.18
2023-02-17T12:18:08.051Z,13.20
2023-02-17T12:20:49.915Z,13.19
2023-02-17T12:23:42.523Z,13.20
2023-02-17T12:26:22.946Z,13.23
2023-02-17T12:29:06.357Z,13.23
2023-02-17T12:31:59.520Z,13.26
2023-02-17T12:34:36.956Z,13.29
2023-02-17T12:37:08.023Z,13.34
2023-02-17T12:39:43.274Z,13.35
2023-02-17T12:42:19.515Z,13.35
2023-02-17T12:44:52.574Z,13.36
2023-02-17T12:47:29.558Z,13.39
2023-02-17T12:50:05.503Z,13.41
2023-02-17T12:52:40.683Z,13.45
2023-02-17T12:55:20.561Z,13.49
2023-02-17T12:57:58.117Z,13.55
2023-02-17T13:00:33.772Z,13.62
2023-02-17T13:03:04.660Z,13.68
2023-02-17T13:05:41.584Z,13.73
2023-02-17T13:08:17.312Z,13.80
2023-02-17T13:10:45.850Z,13.87
2023-02-17T13:13:29.202Z,13.97
2023-02-17T13:16:07.446Z,14.04
2023-02-17T13:18:38.174Z,14.06
2023-02-17T13:21:28.571Z,14.03
2023-02-17T13:24:02.973Z,13.98
2023-02-17T13:26:33.899Z,13.98
2023-02-17T13:29:23.298Z,14.01
2023-02-17T13:31:55.317Z,14.06
2023-02-17T13:34:33.536Z,14.19
2023-02-17T13:37:05.604Z,14.41
2023-02-17T13:39:39.271Z,14.51
2023-02-17T13:42:39.027Z,14.55
2023-02-17T13:45:21.543Z,14.58
2023-02-17T13:47:52.072Z,14.64
2023-02-17T13:50:35.132Z,14.60
2023-02-17T13:53:25.304Z,14.59
2023-02-17T13:55:54.679Z,14.59
2023-02-17T13:58:29.158Z,14.63
2023-02-17T14:01:01.428Z,14.60
2023-02-17T14:03:32.288Z,14.64
2023-02-17T14:06:02.721Z,14.71
2023-02-17T14:08:37.474Z,14.89
2023-02-17T14:11:11.704Z,14.99
2023-02-17T14:13:44.559Z,15.06
2023-02-17T14:16:31.966Z,15.10
2023-02-17T14:19:05.619Z,15.08
2023-02-17T14:21:35.446Z,15.00
2023-02-17T14:24:04.236Z,14.84
2023-02-17T14:26:38.571Z,14.62
2023-02-17T14:29:12.691Z,14.37
2023-02-17T14:31:44.968Z,14.13
2023-02-17T14:34:26.688Z,14.07
2023-02-17T14:36:55.498Z,14.04
2023-02-17T14:39:24.108Z,13.99
2023-02-17T14:41:52.425Z,13.93
2023-02-17T14:44:20.782Z,13.86
2023-02-17T14:46:50.531Z,13.79
2023-02-17T14:49:18.930Z,13.77
2023-02-17T14:51:47.277Z,13.84
2023-02-17T14:54:17.758Z,13.93
2023-02-17T14:56:50.983Z,13.95
2023-02-17T14:59:19.250Z,13.96
2023-02-17T15:01:49.062Z,14.01
2023-02-17T15:04:17.459Z,14.03
2023-02-17T15:06:49.426Z,14.00
2023-02-17T15:09:22.161Z,13.94
2023-02-17T15:11:50.764Z,13.87
2023-02-17T15:14:22.027Z,13.76
2023-02-17T15:16:51.730Z,13.71
2023-02-17T15:19:20.290Z,13.64
2023-02-17T15:21:51.255Z,13.64
2023-02-17T15:24:27.263Z,13.59
2023-02-17T15:26:57.771Z,13.50
2023-02-17T15:29:27.518Z,13.39
2023-02-17T15:31:59.265Z,13.27
2023-02-17T15:34:31.954Z,13.17
2023-02-17T15:37:02.670Z,13.01
2023-02-17T15:39:31.057Z,12.90
2023-02-17T15:42:06.196Z,12.81
2023-02-17T15:44:43.198Z,12.71
2023-02-17T15:47:17.733Z,12.59
2023-02-17T15:49:46.464Z,12.50
2023-02-17T15:52:16.143Z,12.41
2023-02-17T15:54:45.232Z,12.32
2023-02-17T15:57:23.624Z,12.21
2023-02-17T15:59:54.875Z,12.13
2023-02-17T16:02:26.529Z,12.07
2023-02-17T16:04:54.813Z,11.99
2023-02-17T16:07:23.137Z,11.96
2023-02-17T16:09:51.478Z,11.89
2023-02-17T16:12:27.152Z,11.82
2023-02-17T16:14:56.708Z,11.75
2023-02-17T16:17:27.680Z,11.67
2023-02-17T16:19:55.985Z,11.63
2023-02-17T16:22:24.292Z,11.59
2023-02-17T16:24:52.606Z,11.58
2023-02-17T16:27:21.010Z,11.54
2023-02-17T16:29:49.358Z,11.50
2023-02-17T16:32:17.824Z,11.43
2023-02-17T16:34:48.363Z,11.36
2023-02-17T16:37:18.783Z,11.30
2023-02-17T16:39:48.612Z,11.21
2023-02-17T16:42:17.390Z,11.16
2023-02-17T16:44:45.816Z,11.09
2023-02-17T16:47:22.478Z,11.00
2023-02-17T16:49:52.783Z,10.89
2023-02-17T16:52:26.541Z,10.81
2023-02-17T16:54:55.124Z,10.72
2023-02-17T16:57:23.988Z,10.61
2023-02-17T16:59:52.435Z,10.56
2023-02-17T17:02:21.900Z,10.49
2023-02-17T17:04:51.786Z,10.44
2023-02-17T17:07:20.265Z,10.39
2023-02-17T17:10:12.549Z,10.34
2023-02-17T17:12:37.137Z,10.31
2023-02-17T17:15:06.066Z,10.24
2023-02-17T17:17:41.323Z,10.21
2023-02-17T17:20:16.818Z,10.17
2023-02-17T17:22:46.783Z,10.12
2023-02-17T17:25:15.831Z,10.10
2023-02-17T17:27:46.058Z,10.05
2023-02-17T17:30:19.744Z,10.02
2023-02-17T17:32:48.377Z,9.98
2023-02-17T17:35:18.489Z,9.94
2023-02-17T17:37:47.043Z,9.89
2023-02-17T17:40:20.247Z,9.87
2023-02-17T17:42:48.838Z,9.82
2023-02-17T17:45:17.605Z,9.81
2023-02-17T17:47:46.915Z,9.76
2023-02-17T17:50:22.455Z,9.71
2023-02-17T17:52:51.123Z,9.66
2023-02-17T17:55:19.558Z,9.64
2023-02-17T17:57:48.459Z,9.61
2023-02-17T18:00:19.274Z,9.58
2023-02-17T18:02:47.600Z,9.55
2023-02-17T18:05:16.396Z,9.55
2023-02-17T18:07:50.074Z,9.53
2023-02-17T18:10:18.833Z,9.51
2023-02-17T18:12:48.736Z,9.47
2023-02-17T18:15:18.591Z,9.47
2023-02-17T18:17:49.047Z,9.43
2023-02-17T18:20:17.355Z,9.43
2023-02-17T18:22:47.107Z,9.37
2023-02-17T18:25:15.345Z,9.35
2023-02-17T18:27:47.155Z,9.34
2023-02-17T18:30:21.380Z,9.31
2023-02-17T18:32:49.960Z,9.27
2023-02-17T18:35:19.238Z,9.24
2023-02-17T18:37:49.231Z,9.22
2023-02-17T18:40:21.520Z,9.21
2023-02-17T18:42:49.844Z,9.20
2023-02-17T18:45:18.336Z,9.15
2023-02-17T18:47:46.640Z,9.12
2023-02-17T18:50:16.272Z,9.09
2023-02-17T18:52:45.563Z,9.10
2023-02-17T18:55:16.054Z,9.09
2023-02-17T18:57:45.378Z,9.07
2023-02-17T19:00:16.739Z,9.05
2023-02-17T19:02:45.380Z,9.00
2023-02-17T19:05:14.407Z,8.95
2023-02-17T19:07:43.103Z,8.92
2023-02-17T19:10:14.249Z,8.87
2023-02-17T19:12:42.631Z,8.84
2023-02-17T19:15:11.263Z,8.81
2023-02-17T19:17:39.637Z,8.80
2023-02-17T19:20:09.704Z,8.79
2023-02-17T19:22:38.148Z,8.81
2023-02-17T19:25:08.306Z,8.80
2023-02-17T19:27:41.646Z,8.80
2023-02-17T19:30:12.701Z,8.79
2023-02-17T19:32:41.056Z,8.76
2023-02-17T19:35:11.672Z,8.74
2023-02-17T19:37:40.158Z,8.74
2023-02-17T19:40:09.878Z,8.70
2023-02-17T19:42:40.423Z,8.69
2023-02-17T19:45:09.280Z,8.68
2023-02-17T19:47:37.583Z,8.66
2023-02-17T19:50:07.492Z,8.67
2023-02-17T19:52:37.972Z,8.67
2023-02-17T19:55:07.082Z,8.64
2023-02-17T19:57:35.354Z,8.60
2023-02-17T20:00:07.450Z,8.56
2023-02-17T20:02:35.922Z,8.54
2023-02-17T20:05:06.014Z,8.54
2023-02-17T20:07:34.568Z,8.54
2023-02-17T20:10:02.911Z,8.55
2023-02-17T20:12:31.432Z,8.53
2023-02-17T20:14:59.913Z,8.51
2023-02-17T20:17:29.619Z,8.50
2023-02-17T20:19:57.936Z,8.49
2023-02-17T20:22:26.354Z,8.50
2023-02-17T20:24:54.689Z,8.52
2023-02-17T20:27:23.083Z,8.56
2023-02-17T20:29:51.296Z,8.58
2023-02-17T20:32:19.879Z,8.59
2023-02-17T20:34:52.533Z,8.59
2023-02-17T20:37:21.448Z,8.55
2023-02-17T20:39:49.816Z,8.55
2023-02-17T20:42:18.105Z,8.55
2023-02-17T20:44:48.902Z,8.52
2023-02-17T20:47:17.254Z,8.49
2023-02-17T20:49:45.605Z,8.46
2023-02-17T20:52:15.301Z,8.42
2023-02-17T20:54:44.599Z,8.40
2023-02-17T20:57:16.240Z,8.39
2023-02-17T20:59:44.582Z,8.37
2023-02-17T21:02:13.294Z,8.37
2023-02-17T21:04:41.620Z,8.35
2023-02-17T21:07:11.411Z,8.36
2023-02-17T21:09:41.176Z,8.38
2023-02-17T21:12:09.696Z,8.41
2023-02-17T21:14:38.077Z,8.46
2023-02-17T21:17:06.515Z,8.50
2023-02-17T21:19:34.821Z,8.54
2023-02-17T21:22:03.134Z,8.54
2023-02-17T21:24:31.580Z,8.52
2023-02-17T21:27:01.388Z,8.48
2023-02-17T21:29:29.774Z,8.44
2023-02-17T21:31:58.199Z,8.41
2023-02-17T21:34:26.673Z,8.42
2023-02-17T21:36:54.902Z,8.45
2023-02-17T21:39:23.675Z,8.49
2023-02-17T21:41:53.981Z,8.56
2023-02-17T21:44:41.032Z,8.60
2023-02-17T21:47:09.392Z,8.63
2023-02-17T21:49:38.167Z,8.64
2023-02-17T21:52:07.280Z,8.67
2023-02-17T21:54:35.926Z,8.66
2023-02-17T21:57:04.583Z,8.64
2023-02-17T21:59:34.289Z,8.62
2023-02-17T22:02:02.607Z,8.59
2023-02-17T22:04:31.234Z,8.55
2023-02-17T22:06:59.655Z,8.52
2023-02-17T22:09:27.901Z,8.51
2023-02-17T22:11:56.778Z,8.48
2023-02-17T22:14:25.048Z,8.44
2023-02-17T22:16:54.801Z,8.39
2023-02-17T22:19:25.866Z,8.34
2023-02-17T22:21:54.286Z,8.32
2023-02-17T22:24:22.806Z,8.28
2023-02-17T22:26:51.719Z,8.24
2023-02-17T22:29:20.131Z,8.21
2023-02-17T22:31:50.379Z,8.21
2023-02-17T22:34:20.238Z,8.20
2023-02-17T22:36:48.646Z,8.21
2023-02-17T22:39:17.473Z,8.21
2023-02-17T22:41:47.040Z,8.21
2023-02-17T22:44:15.433Z,8.24
2023-02-17T22:46:43.754Z,8.26
2023-02-17T22:49:12.126Z,8.28
2023-02-17T22:51:42.118Z,8.31
2023-02-17T22:54:11.100Z,8.32
2023-02-17T22:56:40.397Z,8.35
2023-02-17T22:59:08.973Z,8.38
2023-02-17T23:01:38.587Z,8.41
2023-02-17T23:04:07.540Z,8.42
2023-02-17T23:06:38.526Z,8.45
2023-02-17T23:09:13.058Z,8.47
2023-02-17T23:11:53.799Z,8.49
2023-02-17T23:14:27.664Z,8.50
2023-02-17T23:16:59.701Z,8.51
2023-02-17T23:19:28.688Z,8.53
2023-02-17T23:22:00.478Z,8.53
2023-02-17T23:24:30.247Z,8.54
2023-02-17T23:27:00.915Z,8.53
2023-02-17T23:29:30.801Z,8.52
2023-02-17T23:31:59.590Z,8.52
2023-02-17T23:34:29.982Z,8.51
2023-02-17T23:36:58.801Z,8.54
2023-02-17T23:39:28.833Z,8.55
2023-02-17T23:41:57.301Z,8.59
2023-02-17T23:44:25.794Z,8.61
2023-02-17T23:46:54.070Z,8.64
2023-02-17T23:49:22.296Z,8.67
2023-02-17T23:51:50.717Z,8.68
2023-02-17T23:54:19.056Z,8.71
2023-02-17T23:56:48.761Z,8.72
2023-02-17T23:59:17.146Z,8.74
